Time;durP1;ratioP1;P1;durP2;ratioP2;P2;SDS_P1;SDS_P2;PMS_P1;PMS_P2;Temp;Humidity;BMP_temperature;BMP_pressure;BME280_temperature;BME280_humidity;BME280_pressure;Samples;Min_cycle;Max_cycle;Signal;HPM_P1;HPM_P2
2022/10/10 00:02:17;;;;;;;2.10;1.98;;;;;;;;;;4932594;29;20047;-83
2022/10/10 00:04:42;;;;;;;3.90;3.03;;;12.10;99.90;;;;;;4932990;29;20084;-83
2022/10/10 00:07:09;;;;;;;3.42;2.88;;;;;;;;;;4918406;29;20041;-84
2022/10/10 00:09:35;;;;;;;2.92;2.63;;;;;;;;;;4918190;29;20091;-83
2022/10/10 00:12:00;;;;;;;4.68;3.65;;;12.00;99.90;;;;;;4916418;29;20039;-84
2022/10/10 00:14:27;;;;;;;6.20;3.90;;;12.00;99.90;;;;;;4931529;29;20028;-84
2022/10/10 00:16:53;;;;;;;3.05;2.85;;;11.90;99.90;;;;;;4916109;29;20042;-83
2022/10/10 00:19:19;;;;;;;4.57;3.42;;;;;;;;;;4932698;29;20036;-83
2022/10/10 00:21:45;;;;;;;4.00;3.70;;;;;;;;;;4934752;29;20028;-83
2022/10/10 00:24:11;;;;;;;7.10;3.55;;;;;;;;;;4934846;29;20043;-85
2022/10/10 00:26:37;;;;;;;5.15;3.20;;;11.90;99.90;;;;;;4934235;29;20043;-84
2022/10/10 00:29:03;;;;;;;7.80;2.85;;;;;;;;;;4933886;29;20032;-83
2022/10/10 00:31:29;;;;;;;3.45;2.72;;;11.90;99.90;;;;;;4933356;29;20028;-84
2022/10/10 00:33:55;;;;;;;5.82;2.67;;;;;;;;;;4932762;29;20028;-83
2022/10/10 00:36:21;;;;;;;3.22;2.97;;;;;;;;;;4932941;29;20103;-84
2022/10/10 00:38:48;;;;;;;4.47;3.33;;;;;;;;;;4932805;29;20036;-83
2022/10/10 00:41:14;;;;;;;4.03;3.72;;;;;;;;;;4932344;29;20064;-84
2022/10/10 00:43:40;;;;;;;4.60;3.55;;;11.70;99.90;;;;;;4931998;29;20036;-83
2022/10/10 00:46:06;;;;;;;3.70;2.95;;;11.70;99.90;;;;;;4934281;29;20463;-84
2022/10/10 00:48:40;;;;;;;3.20;2.95;;;11.70;99.90;;;;;;4913081;29;20036;-83
2022/10/10 00:51:17;;;;;;;7.97;4.13;;;11.60;99.90;;;;;;4912013;29;20040;-84
2022/10/10 00:54:14;;;;;;;4.85;3.13;;;11.70;99.90;;;;;;4912535;29;20044;-84
2022/10/10 00:56:46;;;;;;;3.78;2.72;;;11.70;99.90;;;;;;4908307;29;20407;-84
2022/10/10 00:59:13;;;;;;;3.75;2.92;;;11.70;99.90;;;;;;4912301;29;20033;-83
2022/10/10 01:01:40;;;;;;;3.35;2.92;;;11.70;99.90;;;;;;4912153;29;20057;-84
2022/10/10 01:04:31;;;;;;;3.53;3.17;;;11.60;99.90;;;;;;4915001;29;20055;-84
2022/10/10 01:06:58;;;;;;;4.60;3.67;;;11.60;99.90;;;;;;4930377;29;20044;-83
2022/10/10 01:09:25;;;;;;;2.67;2.40;;;11.60;99.90;;;;;;4930389;29;20024;-84
2022/10/10 01:11:51;;;;;;;4.03;3.63;;;11.60;99.90;;;;;;4931321;29;20035;-84
2022/10/10 01:14:23;;;;;;;4.68;2.60;;;11.60;99.90;;;;;;4929882;29;20035;-83
2022/10/10 01:17:00;;;;;;;3.58;3.28;;;11.60;99.90;;;;;;4931240;29;20035;-83
2022/10/10 01:20:00;;;;;;;3.90;3.60;;;11.60;99.90;;;;;;4931690;29;20064;-84
2022/10/10 01:23:01;;;;;;;5.40;2.35;;;11.50;99.90;;;;;;4917890;29;20047;-83
2022/10/10 01:25:37;;;;;;;3.47;2.95;;;11.50;99.90;;;;;;4930151;29;20043;-84
2022/10/10 01:28:31;;;;;;;2.97;2.72;;;11.50;99.90;;;;;;4930354;29;20044;-83
2022/10/10 01:30:57;;;;;;;4.35;3.63;;;11.50;99.90;;;;;;4930381;29;20036;-84
2022/10/10 01:33:48;;;;;;;4.85;2.53;;;11.50;99.90;;;;;;4931197;29;20029;-84
2022/10/10 01:36:31;;;;;;;5.13;2.83;;;11.50;99.90;;;;;;4930005;29;20109;-84
2022/10/10 01:39:05;;;;;;;3.65;3.35;;;11.50;99.90;;;;;;4929914;29;20031;-83
2022/10/10 01:41:37;;;;;;;3.47;3.17;;;11.50;99.90;;;;;;4930042;29;20032;-84
2022/10/10 01:44:03;;;;;;;3.42;3.17;;;11.50;99.90;;;;;;4930070;29;20032;-83
2022/10/10 01:46:31;;;;;;;16.70;4.68;;;11.40;99.90;;;;;;4926318;29;20052;-84
2022/10/10 01:48:58;;;;;;;6.57;4.10;;;11.40;99.90;;;;;;4932130;29;20051;-83
2022/10/10 01:51:55;;;;;;;4.80;3.67;;;11.40;99.90;;;;;;4933705;29;20024;-83
2022/10/10 01:54:56;;;;;;;3.95;3.35;;;11.40;99.90;;;;;;4934727;29;20032;-84
2022/10/10 01:58:00;;;;;;;4.38;3.30;;;11.40;99.90;;;;;;4915333;29;20032;-84
2022/10/10 02:00:26;;;;;;;3.10;2.88;;;11.40;99.90;;;;;;4910982;29;20045;-83
2022/10/10 02:03:17;;;;;;;3.10;2.90;;;11.40;99.90;;;;;;4914020;29;20040;-84
2022/10/10 02:05:57;;;;;;;7.43;3.33;;;11.40;99.90;;;;;;4913788;29;20104;-84
2022/10/10 02:08:33;;;;;;;5.97;2.70;;;11.30;99.90;;;;;;4930126;29;20035;-84
2022/10/10 02:11:02;;;;;;;3.72;3.15;;;11.30;99.90;;;;;;4898514;29;20039;-84
2022/10/10 02:13:40;;;;;;;6.03;2.93;;;11.30;99.90;;;;;;4914072;29;20048;-84
2022/10/10 02:16:16;;;;;;;3.70;3.42;;;11.30;99.90;;;;;;4923349;29;20088;-84
2022/10/10 02:18:44;;;;;;;3.85;2.83;;;11.30;99.90;;;;;;4932808;29;20040;-83
2022/10/10 02:21:12;;;;;;;5.95;4.20;;;11.30;99.90;;;;;;4932471;29;20024;-83
2022/10/10 02:23:41;;;;;;;4.80;4.38;;;11.30;99.90;;;;;;4934077;29;20042;-84
2022/10/10 02:26:11;;;;;;;4.97;3.83;;;11.20;99.90;;;;;;4924729;29;20036;-83
2022/10/10 02:28:45;;;;;;;4.10;3.75;;;11.20;99.90;;;;;;4913771;29;20088;-84
2022/10/10 02:31:17;;;;;;;4.97;4.25;;;11.20;99.90;;;;;;4914875;29;20111;-84
2022/10/10 02:33:57;;;;;;;3.00;2.78;;;11.20;99.90;;;;;;4914452;29;20025;-84
2022/10/10 02:36:25;;;;;;;3.25;2.95;;;11.20;99.90;;;;;;4915208;29;20041;-84
2022/10/10 02:38:52;;;;;;;8.27;4.35;;;11.20;99.90;;;;;;4914595;29;20057;-83
2022/10/10 02:41:19;;;;;;;10.38;3.17;;;11.20;99.90;;;;;;4913298;29;20040;-83
2022/10/10 02:43:46;;;;;;;4.20;3.15;;;11.20;99.90;;;;;;4913566;29;20052;-83
2022/10/10 02:46:13;;;;;;;6.28;5.47;;;11.20;99.90;;;;;;4922671;29;20033;-84
2022/10/10 02:48:40;;;;;;;4.60;3.92;;;11.10;99.90;;;;;;4921040;29;20025;-84
2022/10/10 02:51:06;;;;;;;4.25;3.85;;;11.10;99.90;;;;;;4913115;29;20044;-84
2022/10/10 02:53:34;;;;;;;4.38;3.97;;;11.10;99.90;;;;;;4914383;29;20017;-83
2022/10/10 02:56:01;;;;;;;8.15;3.70;;;11.10;99.90;;;;;;4931508;29;20032;-84
2022/10/10 02:58:27;;;;;;;4.65;3.17;;;11.10;99.90;;;;;;4932463;29;20367;-84
2022/10/10 03:00:52;;;;;;;5.28;3.58;;;11.10;99.90;;;;;;4932387;29;20035;-83
2022/10/10 03:03:19;;;;;;;7.78;4.72;;;11.10;99.90;;;;;;4931888;29;20031;-83
2022/10/10 03:05:44;;;;;;;6.00;4.03;;;11.00;99.90;;;;;;4926307;29;20029;-83
2022/10/10 03:08:10;;;;;;;4.80;4.40;;;11.00;99.90;;;;;;4914022;29;20140;-83
2022/10/10 03:10:36;;;;;;;5.47;5.00;;;11.00;99.90;;;;;;4912526;29;20033;-83
2022/10/10 03:13:02;;;;;;;11.00;5.22;;;11.00;99.90;;;;;;4897157;29;20096;-84
2022/10/10 03:15:28;;;;;;;6.90;4.32;;;11.00;99.90;;;;;;4914731;29;20039;-83
2022/10/10 03:17:54;;;;;;;5.35;3.90;;;11.00;99.90;;;;;;4932454;29;20032;-83
2022/10/10 03:20:19;;;;;;;4.38;3.85;;;11.00;99.90;;;;;;4931034;29;20474;-83
2022/10/10 03:22:46;;;;;;;4.00;3.60;;;;;;;;;;4931421;29;20032;-84
2022/10/10 03:25:11;;;;;;;4.78;3.35;;;11.00;99.90;;;;;;4931035;29;20486;-84
2022/10/10 03:27:37;;;;;;;6.07;3.60;;;;;;;;;;4926618;29;20025;-83
2022/10/10 03:30:04;;;;;;;4.68;3.78;;;10.90;99.90;;;;;;4931233;29;20043;-83
2022/10/10 03:32:30;;;;;;;5.45;3.80;;;10.90;99.90;;;;;;4931145;29;20028;-83
2022/10/10 03:34:56;;;;;;;6.07;4.30;;;10.90;99.90;;;;;;4931966;29;20080;-84
2022/10/10 03:37:22;;;;;;;5.15;3.10;;;10.90;99.90;;;;;;4913237;29;20035;-84
2022/10/10 03:39:47;;;;;;;7.22;3.72;;;10.80;99.90;;;;;;4911933;29;20104;-83
2022/10/10 03:42:13;;;;;;;3.83;3.53;;;10.90;99.90;;;;;;4912010;29;20512;-84
2022/10/10 03:44:39;;;;;;;4.60;3.72;;;10.90;99.90;;;;;;4896221;29;20024;-83
2022/10/10 03:47:05;;;;;;;4.63;4.15;;;10.80;99.90;;;;;;4927031;29;20099;-83
2022/10/10 03:49:31;;;;;;;7.60;3.03;;;10.80;99.90;;;;;;4912881;29;20032;-84
2022/10/10 03:51:56;;;;;;;3.92;3.42;;;10.80;99.90;;;;;;4927647;29;20481;-83
2022/10/10 03:54:22;;;;;;;3.47;3.17;;;10.80;99.90;;;;;;4911913;29;20044;-83
2022/10/10 03:56:48;;;;;;;7.10;4.07;;;10.80;99.90;;;;;;4923898;29;20032;-83
2022/10/10 03:59:14;;;;;;;5.38;3.88;;;;;;;;;;4930413;29;20058;-83
2022/10/10 04:01:40;;;;;;;6.68;3.75;;;10.80;99.90;;;;;;4914506;29;20032;-83
2022/10/10 04:04:06;;;;;;;4.40;4.00;;;10.70;99.90;;;;;;4929942;29;20084;-83
2022/10/10 04:06:31;;;;;;;6.97;3.92;;;10.80;99.90;;;;;;4921597;29;20039;-83
2022/10/10 04:08:57;;;;;;;3.72;3.42;;;10.70;99.90;;;;;;4911389;29;20032;-83
2022/10/10 04:11:23;;;;;;;5.45;3.53;;;10.70;99.90;;;;;;4911522;29;20049;-83
2022/10/10 04:13:49;;;;;;;8.10;3.35;;;10.70;99.90;;;;;;4911961;29;20036;-83
2022/10/10 04:16:15;;;;;;;5.55;4.82;;;10.70;99.90;;;;;;4918432;29;20093;-83
2022/10/10 04:18:41;;;;;;;8.82;5.25;;;10.80;99.90;;;;;;4930020;29;20043;-84
2022/10/10 04:21:07;;;;;;;4.75;4.18;;;10.70;99.90;;;;;;4931145;29;20024;-83
2022/10/10 04:23:32;;;;;;;7.63;3.88;;;10.70;99.90;;;;;;4929934;29;20046;-83
2022/10/10 04:25:58;;;;;;;9.45;5.22;;;10.70;99.90;;;;;;4924931;29;20096;-83
2022/10/10 04:28:24;;;;;;;4.32;3.97;;;10.70;99.90;;;;;;4911113;29;20025;-83
2022/10/10 04:30:50;;;;;;;5.70;3.90;;;10.60;99.90;;;;;;4897687;29;20043;-83
2022/10/10 04:33:16;;;;;;;5.22;4.72;;;10.70;99.90;;;;;;4911990;29;20040;-83
2022/10/10 04:35:42;;;;;;;5.18;3.83;;;10.60;99.90;;;;;;4910780;29;20084;-83
2022/10/10 04:38:08;;;;;;;6.80;3.60;;;10.70;99.90;;;;;;4911582;29;20029;-83
2022/10/10 04:40:35;;;;;;;9.02;3.55;;;10.60;99.90;;;;;;4910281;29;20514;-83
2022/10/10 04:43:01;;;;;;;7.57;4.15;;;10.60;99.90;;;;;;4911872;29;20020;-83
2022/10/10 04:45:27;;;;;;;7.65;3.55;;;10.60;99.90;;;;;;4894589;29;20047;-83
2022/10/10 04:47:53;;;;;;;6.00;3.95;;;10.60;99.90;;;;;;4910361;29;20029;-84
2022/10/10 04:50:20;;;;;;;5.15;4.65;;;10.60;99.90;;;;;;4914075;29;20048;-83
2022/10/10 04:52:45;;;;;;;4.05;3.75;;;10.60;99.90;;;;;;4901044;29;20123;-83
2022/10/10 04:55:11;;;;;;;4.28;3.85;;;10.60;99.90;;;;;;4915004;29;20036;-83
2022/10/10 04:57:37;;;;;;;5.85;3.83;;;10.60;99.90;;;;;;4917248;29;20513;-83
2022/10/10 05:00:05;;;;;;;5.50;3.72;;;10.60;99.90;;;;;;4916516;29;20031;-83
2022/10/10 05:02:31;;;;;;;4.53;3.60;;;10.60;99.90;;;;;;4932770;29;20020;-83
2022/10/10 05:04:57;;;;;;;4.95;4.55;;;10.60;99.90;;;;;;4916330;29;20083;-83
2022/10/10 05:07:23;;;;;;;4.35;4.00;;;10.50;99.90;;;;;;4909037;29;20032;-82
2022/10/10 05:09:49;;;;;;;4.63;3.67;;;10.50;99.90;;;;;;4914510;29;20111;-83
2022/10/10 05:12:15;;;;;;;3.80;3.08;;;10.50;99.90;;;;;;4923181;29;20088;-82
2022/10/10 05:14:41;;;;;;;4.65;4.13;;;10.50;99.90;;;;;;4904036;29;20039;-82
2022/10/10 05:17:07;;;;;;;4.70;3.72;;;10.50;99.90;;;;;;4913243;29;20032;-83
2022/10/10 05:19:33;;;;;;;4.82;4.43;;;10.50;99.90;;;;;;4928550;29;20079;-83
2022/10/10 05:21:59;;;;;;;4.47;4.07;;;;;;;;;;4915374;29;20095;-83
2022/10/10 05:24:25;;;;;;;21.00;5.82;;;10.40;99.90;;;;;;4934746;29;20096;-83
2022/10/10 05:26:51;;;;;;;7.15;5.80;;;10.40;99.90;;;;;;4918924;29;20025;-83
2022/10/10 05:29:20;;;;;;;6.20;5.80;;;10.30;99.90;;;;;;4933675;29;20154;-86
2022/10/10 05:31:46;;;;;;;7.72;6.03;;;10.30;99.90;;;;;;4914105;29;20024;-85
2022/10/10 05:34:13;;;;;;;6.25;5.75;;;10.20;99.90;;;;;;4929319;29;20430;-85
2022/10/10 05:36:40;;;;;;;4.85;4.45;;;10.20;99.90;;;;;;4922374;29;20390;-85
2022/10/10 05:39:06;;;;;;;4.32;4.00;;;10.20;99.90;;;;;;4914038;29;20037;-85
2022/10/10 05:41:32;;;;;;;4.28;3.88;;;10.20;99.90;;;;;;4913731;29;20036;-85
2022/10/10 05:43:58;;;;;;;4.50;3.55;;;10.20;99.90;;;;;;4913715;29;20491;-85
2022/10/10 05:46:25;;;;;;;3.67;3.38;;;10.20;99.90;;;;;;4913929;29;20024;-85
2022/10/10 05:48:52;;;;;;;6.13;4.68;;;10.10;99.90;;;;;;4913933;29;20033;-85
2022/10/10 05:51:18;;;;;;;5.97;3.83;;;10.10;99.90;;;;;;4913472;29;20037;-86
2022/10/10 05:53:45;;;;;;;5.65;3.97;;;10.10;99.90;;;;;;4918678;29;20035;-85
2022/10/10 05:56:13;;;;;;;7.07;4.55;;;10.10;99.90;;;;;;4921898;29;20025;-85
2022/10/10 05:58:39;;;;;;;8.13;4.13;;;10.10;99.90;;;;;;4913237;29;20040;-86
2022/10/10 06:01:06;;;;;;;5.70;4.57;;;10.10;99.90;;;;;;4913473;29;20036;-85
2022/10/10 06:03:33;;;;;;;4.10;3.65;;;10.00;99.90;;;;;;4913213;29;20054;-85
2022/10/10 06:05:59;;;;;;;10.43;4.22;;;10.10;99.90;;;;;;4918378;29;20032;-85
2022/10/10 06:08:24;;;;;;;12.90;4.18;;;10.10;99.90;;;;;;4928642;29;20449;-85
2022/10/10 06:10:50;;;;;;;5.13;3.92;;;;;;;;;;4931027;29;20418;-86
2022/10/10 06:13:19;;;;;;;4.90;3.42;;;10.10;99.90;;;;;;4922128;29;20029;-85
2022/10/10 06:15:49;;;;;;;4.97;3.33;;;10.20;99.90;;;;;;4912958;29;20016;-86
2022/10/10 06:18:15;;;;;;;6.93;4.25;;;;;;;;;;4927714;29;20036;-85
2022/10/10 06:20:41;;;;;;;3.95;2.95;;;10.20;99.90;;;;;;4913029;29;20055;-86
2022/10/10 06:23:07;;;;;;;3.88;3.30;;;10.20;99.90;;;;;;4911751;29;20025;-85
2022/10/10 06:25:35;;;;;;;3.90;3.30;;;10.20;99.90;;;;;;4912787;29;20037;-85
2022/10/10 06:28:01;;;;;;;8.60;4.40;;;10.20;99.90;;;;;;4912852;29;20039;-86
2022/10/10 06:30:27;;;;;;;10.73;3.67;;;;;;;;;;4912965;29;20029;-86
2022/10/10 06:32:52;;;;;;;5.18;3.90;;;10.30;99.90;;;;;;4912967;29;20029;-86
2022/10/10 06:35:19;;;;;;;10.15;3.88;;;10.30;99.90;;;;;;4916351;29;20054;-85
2022/10/10 06:37:45;;;;;;;3.15;2.75;;;10.30;99.90;;;;;;4930769;29;20032;-85
2022/10/10 06:40:11;;;;;;;6.32;3.28;;;10.30;99.90;;;;;;4930633;29;20036;-85
2022/10/10 06:42:37;;;;;;;4.28;3.38;;;10.40;99.90;;;;;;4931547;29;20072;-85
2022/10/10 06:45:03;;;;;;;3.03;2.72;;;10.30;99.90;;;;;;4927356;29;20027;-86
2022/10/10 06:47:29;;;;;;;4.88;3.53;;;10.30;99.90;;;;;;4919248;29;20032;-85
2022/10/10 06:49:55;;;;;;;6.13;3.10;;;10.70;99.90;;;;;;4935242;29;20241;-85
2022/10/10 06:52:21;;;;;;;7.88;4.30;;;10.30;99.90;;;;;;4930678;29;20036;-86
2022/10/10 06:54:47;;;;;;;7.45;3.83;;;10.30;99.90;;;;;;4917793;29;20037;-85
2022/10/10 06:57:13;;;;;;;3.80;3.03;;;;;;;;;;4912362;29;20035;-85
2022/10/10 06:59:39;;;;;;;5.13;3.40;;;10.30;99.90;;;;;;4912493;29;20036;-86
2022/10/10 07:02:05;;;;;;;3.75;3.45;;;10.30;99.90;;;;;;4912250;29;20032;-86
2022/10/10 07:04:31;;;;;;;5.10;3.70;;;;;;;;;;4912026;29;20146;-86
2022/10/10 07:06:57;;;;;;;7.20;4.20;;;10.40;99.90;;;;;;4911940;29;20068;-86
2022/10/10 07:09:22;;;;;;;7.38;6.65;;;10.40;99.90;;;;;;4912420;29;20498;-85
2022/10/10 07:11:49;;;;;;;8.60;4.65;;;;;;;;;;4912033;29;20059;-86
2022/10/10 07:14:14;;;;;;;6.82;4.63;;;10.40;99.90;;;;;;4910973;29;20104;-85
2022/10/10 07:16:40;;;;;;;4.53;4.05;;;10.50;99.90;;;;;;4912027;29;20039;-86
2022/10/10 07:19:06;;;;;;;7.40;5.25;;;10.50;99.90;;;;;;4911942;29;20033;-85
2022/10/10 07:21:32;;;;;;;4.90;3.65;;;;;;;;;;4910988;29;20402;-86
2022/10/10 07:23:58;;;;;;;10.23;5.10;;;10.60;99.90;;;;;;4928529;29;20040;-86
2022/10/10 07:26:27;;;;;;;3.80;3.50;;;10.60;99.90;;;;;;4930778;29;20028;-85
2022/10/10 07:28:53;;;;;;;6.70;3.85;;;10.60;99.90;;;;;;4932156;29;20028;-85
2022/10/10 07:31:18;;;;;;;5.65;3.10;;;10.60;99.90;;;;;;4929694;29;20033;-86
2022/10/10 07:33:46;;;;;;;5.85;5.32;;;10.70;99.90;;;;;;4911610;29;20036;-86
2022/10/10 07:36:13;;;;;;;7.32;4.22;;;10.70;99.90;;;;;;4911775;29;20044;-86
2022/10/10 07:38:39;;;;;;;5.07;4.07;;;10.70;99.90;;;;;;4911664;29;20058;-85
2022/10/10 07:41:11;;;;;;;6.53;4.43;;;10.80;99.90;;;;;;4911550;29;20542;-86
2022/10/10 07:43:37;;;;;;;6.20;4.60;;;10.70;99.90;;;;;;4929008;29;20470;-86
2022/10/10 07:46:04;;;;;;;5.18;4.20;;;10.80;99.90;;;;;;4930045;29;20042;-86
2022/10/10 07:48:31;;;;;;;6.97;5.05;;;10.80;99.90;;;;;;4929019;29;20020;-86
2022/10/10 07:50:57;;;;;;;7.10;4.47;;;10.80;99.90;;;;;;4930454;29;20032;-86
2022/10/10 07:53:23;;;;;;;5.72;3.25;;;;;;;;;;4929496;29;20071;-86
2022/10/10 07:55:49;;;;;;;4.38;3.80;;;10.90;99.90;;;;;;4930322;29;20020;-86
2022/10/10 07:58:15;;;;;;;5.03;3.28;;;11.00;99.90;;;;;;4929129;29;20115;-86
2022/10/10 08:00:41;;;;;;;6.30;4.15;;;11.00;99.90;;;;;;4929013;29;20032;-86
2022/10/10 08:03:08;;;;;;;3.55;3.25;;;11.10;99.90;;;;;;4915216;29;20036;-85
2022/10/10 08:05:39;;;;;;;4.90;3.65;;;11.10;99.90;;;;;;4911293;29;20032;-86
2022/10/10 08:08:05;;;;;;;3.35;3.05;;;11.10;99.90;;;;;;4911030;29;20517;-86
2022/10/10 08:10:30;;;;;;;4.50;2.85;;;11.10;99.90;;;;;;4919538;29;20028;-86
2022/10/10 08:12:56;;;;;;;5.05;3.00;;;11.10;99.90;;;;;;4928150;29;20123;-86
2022/10/10 08:15:22;;;;;;;6.72;3.35;;;;;;;;;;4919708;29;20056;-86
2022/10/10 08:17:48;;;;;;;6.07;3.33;;;11.20;99.90;;;;;;4928605;29;20031;-86
2022/10/10 08:20:14;;;;;;;2.88;2.58;;;11.30;99.90;;;;;;4929929;29;20032;-86
2022/10/10 08:22:40;;;;;;;4.07;2.92;;;11.30;99.90;;;;;;4929889;29;20036;-86
2022/10/10 08:25:06;;;;;;;4.03;3.58;;;11.30;99.90;;;;;;4918410;29;20047;-86
2022/10/10 08:27:32;;;;;;;3.13;2.83;;;11.30;99.90;;;;;;4927693;29;20051;-86
2022/10/10 08:29:58;;;;;;;7.90;2.67;;;;;;;;;;4929646;29;20036;-86
2022/10/10 08:32:24;;;;;;;2.72;2.50;;;11.40;99.90;;;;;;4929655;29;20051;-86
2022/10/10 08:34:50;;;;;;;8.90;3.10;;;11.40;99.90;;;;;;4929682;29;20020;-86
2022/10/10 08:37:16;;;;;;;4.20;2.38;;;;;;;;;;4927318;29;20120;-87
2022/10/10 08:39:42;;;;;;;4.93;2.85;;;11.50;99.90;;;;;;4927314;29;20039;-86
2022/10/10 08:42:23;;;;;;;6.25;3.08;;;11.70;99.90;;;;;;4929746;29;20028;-86
2022/10/10 08:44:53;;;;;;;3.50;2.55;;;11.60;99.90;;;;;;4925474;29;20092;-87
2022/10/10 08:47:25;;;;;;;4.90;3.00;;;11.70;99.90;;;;;;4914082;29;20100;-87
2022/10/10 08:50:00;;;;;;;4.63;3.55;;;11.80;99.90;;;;;;4910442;29;20029;-86
2022/10/10 08:52:37;;;;;;;6.45;3.30;;;11.90;99.90;;;;;;4910554;29;20033;-86
2022/10/10 08:55:12;;;;;;;6.40;4.30;;;12.00;99.90;;;;;;4910815;29;20025;-87
2022/10/10 08:57:52;;;;;;;6.18;2.55;;;12.10;99.90;;;;;;4912518;29;20033;-86
2022/10/10 09:00:21;;;;;;;4.80;3.38;;;12.10;99.90;;;;;;4916884;29;20375;-86
2022/10/10 09:02:48;;;;;;;3.60;3.22;;;12.20;99.90;;;;;;4916526;29;20032;-86
2022/10/10 09:05:18;;;;;;;4.55;3.28;;;12.10;99.90;;;;;;4916672;29;20052;-87
2022/10/10 09:07:59;;;;;;;4.57;3.00;;;12.20;99.90;;;;;;4930868;29;20040;-87
2022/10/10 09:10:53;;;;;;;4.13;3.45;;;12.20;99.90;;;;;;4935619;29;20515;-86
2022/10/10 09:13:42;;;;;;;4.03;2.88;;;12.30;99.90;;;;;;4935842;29;20047;-87
2022/10/10 09:16:39;;;;;;;2.90;2.50;;;12.30;99.90;;;;;;4933698;29;20028;-87
2022/10/10 09:19:26;;;;;;;3.90;2.50;;;12.40;99.90;;;;;;4915643;29;20033;-87
2022/10/10 09:21:59;;;;;;;3.65;2.88;;;12.40;99.90;;;;;;4916478;29;20043;-86
2022/10/10 09:24:33;;;;;;;6.13;2.92;;;12.60;99.90;;;;;;4916739;29;20033;-87
2022/10/10 09:27:03;;;;;;;7.53;3.08;;;12.60;99.90;;;;;;4922850;29;20032;-88
2022/10/10 09:29:41;;;;;;;6.32;2.42;;;12.70;99.90;;;;;;4935414;29;20103;-87
2022/10/10 09:32:16;;;;;;;4.70;2.42;;;12.80;99.90;;;;;;4949996;29;20035;-87
2022/10/10 09:34:48;;;;;;;5.18;2.53;;;12.90;99.90;;;;;;4935584;29;20075;-87
2022/10/10 09:37:19;;;;;;;5.00;2.97;;;12.90;99.90;;;;;;4919496;29;20085;-87
2022/10/10 09:40:08;;;;;;;8.38;2.45;;;13.00;99.90;;;;;;4916624;29;20398;-86
2022/10/10 09:42:37;;;;;;;4.05;2.20;;;13.10;99.90;;;;;;4915081;29;20032;-87
2022/10/10 09:45:15;;;;;;;5.70;3.58;;;13.30;99.90;;;;;;4916279;29;20067;-87
2022/10/10 09:47:41;;;;;;;6.10;4.50;;;13.50;99.90;;;;;;4934433;29;20032;-87
2022/10/10 09:50:12;;;;;;;2.72;2.40;;;13.60;99.90;;;;;;4935371;29;20647;-87
2022/10/10 09:52:38;;;;;;;2.90;1.88;;;13.60;99.90;;;;;;4935334;29;20031;-87
2022/10/10 09:55:17;;;;;;;3.85;2.67;;;13.80;99.90;;;;;;4935052;29;20033;-87
2022/10/10 09:57:43;;;;;;;4.97;2.00;;;13.80;99.90;;;;;;4949545;29;20064;-87
2022/10/10 10:00:17;;;;;;;8.70;2.60;;;13.70;99.90;;;;;;4935349;29;20032;-87
2022/10/10 10:02:47;;;;;;;2.35;2.17;;;13.60;99.90;;;;;;4949671;29;20035;-87
2022/10/10 10:05:26;;;;;;;5.15;2.38;;;13.60;99.90;;;;;;4934949;29;20040;-87
2022/10/10 10:07:53;;;;;;;2.33;1.87;;;;;;;;;;4934097;29;20047;-86
2022/10/10 10:10:21;;;;;;;4.70;3.08;;;13.60;99.90;;;;;;4933009;29;20355;-87
2022/10/10 10:12:47;;;;;;;4.50;3.92;;;13.70;99.90;;;;;;4932045;29;20067;-86
2022/10/10 10:15:23;;;;;;;2.75;2.28;;;13.70;99.90;;;;;;4932039;29;20038;-87
2022/10/10 10:18:10;;;;;;;5.38;3.53;;;13.60;99.90;;;;;;4928537;29;20033;-87
2022/10/10 10:20:39;;;;;;;8.05;3.92;;;13.60;99.90;;;;;;4913060;29;20123;-87
2022/10/10 10:23:22;;;;;;;2.78;1.98;;;13.70;99.90;;;;;;4913022;29;20105;-86
2022/10/10 10:25:59;;;;;;;7.13;3.08;;;13.70;99.90;;;;;;4914733;29;20379;-86
2022/10/10 10:28:26;;;;;;;3.17;2.05;;;13.70;99.90;;;;;;4932028;29;20036;-86
2022/10/10 10:30:54;;;;;;;6.85;3.22;;;13.70;99.90;;;;;;4930300;29;20033;-87
2022/10/10 10:33:39;;;;;;;15.15;3.33;;;13.70;99.90;;;;;;4931640;29;20087;-86
2022/10/10 10:36:22;;;;;;;4.68;2.65;;;13.70;99.90;;;;;;4925901;29;20032;-87
2022/10/10 10:38:59;;;;;;;3.60;2.97;;;13.70;99.90;;;;;;4918156;29;20103;-88
2022/10/10 10:42:12;;;;;;;6.22;3.95;;;13.70;99.90;;;;;;4920116;29;20028;-88
2022/10/10 10:44:41;;;;;;;3.70;3.40;;;13.70;99.90;;;;;;4910128;29;20045;-88
2022/10/10 10:47:46;;;;;;;8.13;3.42;;;13.80;99.90;;;;;;4921393;29;20051;-86
2022/10/10 10:50:37;;;;;;;10.45;3.63;;;13.90;99.90;;;;;;4935060;29;20028;-87
2022/10/10 10:53:18;;;;;;;6.45;3.33;;;13.90;99.90;;;;;;4916422;29;20525;-87
2022/10/10 10:55:59;;;;;;;5.68;2.67;;;13.90;99.90;;;;;;4916564;29;20028;-87
2022/10/10 10:58:39;;;;;;;7.40;2.92;;;13.90;99.90;;;;;;4931274;29;20512;-88
2022/10/10 11:01:10;;;;;;;;;;;14.00;99.90;;;;;;4931806;29;20430;-88
2022/10/10 11:03:39;;;;;;;3.78;1.95;;;14.00;99.90;;;;;;4930971;29;19950;-88
2022/10/10 11:06:13;;;;;;;2.67;2.28;;;14.10;99.90;;;;;;4931351;29;20092;-88
2022/10/10 11:08:52;;;;;;;28.52;3.28;;;14.10;99.90;;;;;;4926615;29;20032;-88
2022/10/10 11:11:21;;;;;;;3.13;1.95;;;14.20;99.90;;;;;;4912190;29;20025;-88
2022/10/10 11:13:59;;;;;;;5.60;2.67;;;14.20;99.90;;;;;;4912122;29;20024;-88
2022/10/10 11:16:31;;;;;;;5.32;2.95;;;14.20;99.90;;;;;;4912361;29;20474;-88
2022/10/10 11:19:24;;;;;;;3.03;2.08;;;14.20;99.90;;;;;;4914250;29;20029;-89
2022/10/10 11:22:17;;;;;;;5.57;2.25;;;14.20;99.90;;;;;;4910280;29;20040;-88
2022/10/10 11:24:53;;;;;;;11.35;3.30;;;14.30;99.90;;;;;;4898281;29;20099;-88
2022/10/10 11:27:40;;;;;;;4.32;2.47;;;14.30;99.90;;;;;;4930635;29;20036;-88
2022/10/10 11:30:23;;;;;;;6.45;2.20;;;14.30;99.90;;;;;;4914151;29;20032;-87
2022/10/10 11:33:03;;;;;;;8.18;2.42;;;14.30;99.90;;;;;;4913603;29;20032;-88
2022/10/10 11:35:29;;;;;;;;;;;14.30;99.90;;;;;;4929590;29;20115;-88
2022/10/10 11:38:24;;;;;;;11.23;2.58;;;14.30;99.90;;;;;;4930194;29;19962;-88
2022/10/10 11:41:12;;;;;;;4.32;2.38;;;14.40;99.90;;;;;;4922995;29;20040;-88
2022/10/10 11:44:06;;;;;;;3.70;2.28;;;14.40;99.90;;;;;;4929378;29;20066;-87
2022/10/10 11:46:42;;;;;;;3.75;3.05;;;14.40;99.90;;;;;;4922438;29;20112;-88
2022/10/10 11:49:11;;;;;;;7.10;3.20;;;14.40;99.90;;;;;;4915742;29;20529;-88
2022/10/10 11:51:55;;;;;;;6.53;2.90;;;14.50;99.90;;;;;;4920417;29;20029;-88
2022/10/10 11:54:54;;;;;;;8.55;3.00;;;14.60;99.90;;;;;;4924867;29;20055;-88
2022/10/10 11:57:31;;;;;;;10.10;4.22;;;14.60;99.90;;;;;;4911547;29;20096;-89
2022/10/10 12:00:04;;;;;;;17.90;3.25;;;14.80;99.90;;;;;;4911744;29;20032;-88
2022/10/10 12:02:35;;;;;;;7.10;3.00;;;14.90;99.90;;;;;;4925290;29;20025;-89
2022/10/10 12:05:04;;;;;;;2.88;2.30;;;15.10;99.90;;;;;;4909816;29;20048;-87
2022/10/10 12:07:39;;;;;;;3.10;1.88;;;15.30;99.90;;;;;;4920304;29;20047;-89
2022/10/10 12:10:10;;;;;;;5.03;2.97;;;15.50;99.90;;;;;;4912507;29;20032;-87
2022/10/10 12:12:43;;;;;;;5.68;2.65;;;15.50;99.90;;;;;;4921449;29;20061;-89
2022/10/10 12:15:09;;;;;;;3.88;3.38;;;15.60;99.90;;;;;;4913819;29;20032;-87
2022/10/10 12:17:45;;;;;;;7.38;3.20;;;15.80;99.90;;;;;;4922195;29;20041;-89
2022/10/10 12:20:13;;;;;;;3.63;3.20;;;15.80;99.90;;;;;;4927252;29;20036;-89
2022/10/10 12:22:40;;;;;;;2.65;2.45;;;15.90;99.90;;;;;;4895570;29;20081;-89
2022/10/10 12:25:24;;;;;;;5.63;2.67;;;15.90;99.90;;;;;;4910945;29;20047;-88
2022/10/10 12:28:35;;;;;;;11.68;3.63;;;16.00;99.90;;;;;;4928200;29;20039;-89
2022/10/10 12:31:04;;;;;;;6.78;2.95;;;16.00;99.90;;;;;;4929557;29;20024;-89
2022/10/10 12:33:30;;;;;;;5.10;3.05;;;16.10;99.90;;;;;;4913422;29;20040;-87
2022/10/10 12:35:56;;;;;;;7.72;2.70;;;;;;;;;;4911821;29;20376;-89
2022/10/10 12:38:26;;;;;;;4.20;2.55;;;16.10;99.90;;;;;;4928192;29;20497;-89
2022/10/10 12:41:10;;;;;;;;;;;16.20;99.90;;;;;;4917708;29;20048;-89
2022/10/10 12:43:43;;;;;;;5.25;2.88;;;16.40;99.90;;;;;;4910738;29;20347;-89
2022/10/10 12:46:41;;;;;;;2.67;2.47;;;16.70;99.90;;;;;;4911988;29;20028;-89
2022/10/10 12:49:15;;;;;;;4.18;2.67;;;16.70;99.90;;;;;;4912281;29;20052;-89
2022/10/10 12:51:42;;;;;;;6.35;3.60;;;16.60;99.90;;;;;;4934042;29;20048;-89
2022/10/10 12:54:22;;;;;;;7.85;2.67;;;16.50;99.90;;;;;;4909232;29;20020;-89
2022/10/10 12:56:50;;;;;;;;;;;16.50;99.90;;;;;;4915457;29;20066;-89
2022/10/10 12:59:20;;;;;;;8.00;2.20;;;16.50;99.90;;;;;;4928970;29;19966;-88
2022/10/10 13:01:53;;;;;;;3.55;2.63;;;16.40;99.90;;;;;;4928872;29;20035;-89
2022/10/10 13:04:20;;;;;;;7.75;3.20;;;16.40;99.90;;;;;;4915174;29;20123;-89
2022/10/10 13:06:50;;;;;;;6.07;2.25;;;16.40;99.90;;;;;;4943777;29;20032;-90
2022/10/10 13:09:22;;;;;;;2.70;2.05;;;16.40;99.90;;;;;;4927772;29;20032;-89
2022/10/10 13:11:59;;;;;;;2.33;2.10;;;16.30;99.90;;;;;;4927260;29;20016;-89
2022/10/10 13:14:35;;;;;;;5.78;2.90;;;16.20;99.90;;;;;;4910707;29;20052;-89
2022/10/10 13:17:01;;;;;;;4.57;2.95;;;16.20;99.90;;;;;;4921586;29;20167;-88
2022/10/10 13:19:27;;;;;;;7.25;3.00;;;;;;;;;;4943869;29;20024;-89